createdAt,value
2019-04-05T00:02:10.993Z,11.12
2019-04-05T00:04:44.363Z,11.17
2019-04-05T00:07:17.706Z,11.26
2019-04-05T00:09:51.112Z,11.30
2019-04-05T00:12:24.501Z,11.34
2019-04-05T00:14:57.848Z,11.28
2019-04-05T00:17:31.283Z,11.41
2019-04-05T00:20:07.588Z,11.42
2019-04-05T00:22:40.980Z,11.30
2019-04-05T00:25:14.406Z,11.28
2019-04-05T00:27:47.745Z,11.30
2019-04-05T00:30:21.236Z,11.13
2019-04-05T00:32:54.618Z,11.27
2019-04-05T00:35:28.045Z,11.26
2019-04-05T00:38:01.428Z,11.35
2019-04-05T00:40:34.797Z,11.42
2019-04-05T00:43:08.119Z,11.47
2019-04-05T00:45:41.487Z,11.39
2019-04-05T00:48:15.807Z,11.30
2019-04-05T00:50:49.255Z,11.23
2019-04-05T00:53:22.665Z,11.30
2019-04-05T00:55:56.022Z,11.28
2019-04-05T00:58:29.431Z,11.31
2019-04-05T01:01:02.887Z,11.39
2019-04-05T01:03:36.246Z,11.46
2019-04-05T01:06:09.603Z,11.49
2019-04-05T01:08:43.142Z,11.47
2019-04-05T01:11:16.615Z,11.50
2019-04-05T01:13:50.507Z,11.52
2019-04-05T01:16:23.941Z,11.44
2019-04-05T01:18:57.280Z,11.28
2019-04-05T01:21:33.832Z,11.41
2019-04-05T01:24:07.935Z,11.43
2019-04-05T01:26:42.825Z,11.44
2019-04-05T01:29:16.258Z,11.46
2019-04-05T01:31:49.684Z,11.44
2019-04-05T01:34:23.003Z,11.39
2019-04-05T01:36:56.428Z,11.51
2019-04-05T01:39:29.765Z,11.44
2019-04-05T01:42:03.198Z,11.40
2019-04-05T01:44:36.635Z,11.46
2019-04-05T01:47:10.069Z,11.42
2019-04-05T01:49:43.458Z,11.37
2019-04-05T01:52:16.899Z,11.46
2019-04-05T01:54:50.240Z,11.50
2019-04-05T01:57:23.645Z,11.45
2019-04-05T01:59:57.014Z,11.45
2019-04-05T02:02:30.389Z,11.49
2019-04-05T02:05:06.055Z,11.31
2019-04-05T02:07:39.593Z,11.30
2019-04-05T02:10:13.313Z,11.40
2019-04-05T02:12:46.803Z,11.53
2019-04-05T02:15:28.449Z,11.61
2019-04-05T02:18:01.914Z,11.66
2019-04-05T02:20:35.375Z,11.60
2019-04-05T02:23:08.770Z,11.69
2019-04-05T02:25:42.193Z,11.71
2019-04-05T02:28:15.672Z,11.63
2019-04-05T02:30:49.095Z,11.49
2019-04-05T02:33:22.484Z,11.54
2019-04-05T02:35:55.944Z,11.54
2019-04-05T02:38:29.275Z,11.61
2019-04-05T02:41:03.491Z,11.66
2019-04-05T02:43:38.589Z,11.59
2019-04-05T02:46:23.625Z,11.55
2019-04-05T02:48:47.941Z,11.52
2019-04-05T02:51:23.100Z,11.47
2019-04-05T02:53:57.889Z,11.52
2019-04-05T02:56:31.666Z,11.49
2019-04-05T02:59:05.912Z,11.44
2019-04-05T03:01:39.383Z,11.53
2019-04-05T03:04:13.265Z,11.40
2019-04-05T03:06:47.043Z,11.47
2019-04-05T03:09:20.872Z,11.60
2019-04-05T03:11:54.870Z,11.45
2019-04-05T03:14:28.587Z,11.47
2019-04-05T03:17:02.530Z,11.52
2019-04-05T03:19:37.644Z,11.62
2019-04-05T03:22:12.561Z,11.66
2019-04-05T03:24:46.664Z,11.61
2019-04-05T03:27:22.508Z,11.67
2019-04-05T03:29:56.523Z,11.62
2019-04-05T03:32:29.984Z,11.72
2019-04-05T03:35:03.852Z,11.80
2019-04-05T03:37:37.294Z,11.63
2019-04-05T03:40:10.726Z,11.60
2019-04-05T03:42:44.237Z,11.59
2019-04-05T03:45:17.555Z,11.61
2019-04-05T03:47:51.012Z,11.63
2019-04-05T03:50:24.432Z,11.67
2019-04-05T03:52:58.076Z,11.73
2019-04-05T03:55:31.665Z,11.73
2019-04-05T03:58:05.420Z,11.64
2019-04-05T04:00:39.242Z,11.65
2019-04-05T04:03:12.841Z,11.72
2019-04-05T04:05:46.235Z,11.70
2019-04-05T04:08:23.277Z,11.58
2019-04-05T04:10:55.584Z,11.66
2019-04-05T04:13:29.295Z,11.52
2019-04-05T04:16:02.706Z,11.51
2019-04-05T04:18:36.439Z,11.50
2019-04-05T04:21:15.878Z,11.60
2019-04-05T04:23:49.310Z,11.55
2019-04-05T04:26:22.776Z,11.54
2019-04-05T04:28:56.417Z,11.56
2019-04-05T04:31:29.917Z,11.62
2019-04-05T04:34:03.275Z,11.62
2019-04-05T04:36:36.597Z,11.63
2019-04-05T04:39:10.033Z,11.58
2019-04-05T04:41:43.802Z,11.54
2019-04-05T04:44:18.090Z,11.65
2019-04-05T04:46:51.807Z,11.67
2019-04-05T04:49:25.242Z,11.64
2019-04-05T04:51:58.814Z,11.60
2019-04-05T04:54:32.260Z,11.66
2019-04-05T04:57:05.982Z,11.54
2019-04-05T04:59:39.424Z,11.51
2019-04-05T05:02:13.026Z,11.58
2019-04-05T05:04:46.467Z,11.62
2019-04-05T05:07:19.852Z,11.63
2019-04-05T05:09:53.327Z,11.52
2019-04-05T05:12:26.797Z,11.54
2019-04-05T05:15:00.225Z,11.59
2019-04-05T05:17:38.836Z,11.58
2019-04-05T05:20:09.848Z,11.59
2019-04-05T05:22:43.365Z,11.57
2019-04-05T05:25:17.719Z,11.58
2019-04-05T05:27:51.259Z,11.49
2019-04-05T05:30:24.966Z,11.43
2019-04-05T05:32:58.829Z,11.50
2019-04-05T05:35:32.219Z,11.55
2019-04-05T05:38:05.959Z,11.50
2019-04-05T05:40:39.364Z,11.62
2019-04-05T05:43:12.785Z,11.64
2019-04-05T05:45:46.496Z,11.67
2019-04-05T05:48:19.930Z,11.61
2019-04-05T05:50:53.362Z,11.66
2019-04-05T05:53:26.742Z,11.68
2019-04-05T05:56:00.065Z,11.68
2019-04-05T05:58:33.482Z,11.66
2019-04-05T06:01:06.883Z,11.54
2019-04-05T06:03:40.269Z,11.64
2019-04-05T06:06:13.658Z,11.69
2019-04-05T06:08:47.151Z,11.71
2019-04-05T06:11:20.500Z,11.62
2019-04-05T06:13:53.874Z,11.51
2019-04-05T06:16:27.277Z,11.59
2019-04-05T06:19:00.751Z,11.54
2019-04-05T06:21:34.074Z,11.67
2019-04-05T06:24:07.445Z,11.68
2019-04-05T06:26:40.784Z,11.82
2019-04-05T06:29:14.244Z,11.90
2019-04-05T06:31:47.592Z,11.80
2019-04-05T06:34:21.013Z,11.87
2019-04-05T06:36:54.440Z,11.92
2019-04-05T06:39:27.803Z,11.85
2019-04-05T06:42:01.251Z,11.73
2019-04-05T06:44:34.697Z,11.81
2019-04-05T06:47:08.020Z,11.74
2019-04-05T06:49:41.427Z,11.81
2019-04-05T06:52:14.787Z,11.91
2019-04-05T06:54:48.210Z,11.96
2019-04-05T06:57:21.649Z,11.94
2019-04-05T06:59:55.002Z,12.08
2019-04-05T07:02:28.396Z,12.11
2019-04-05T07:05:01.772Z,12.10
2019-04-05T07:07:35.108Z,11.96
2019-04-05T07:10:08.693Z,12.08
2019-04-05T07:12:42.192Z,12.16
2019-04-05T07:15:15.689Z,12.09
2019-04-05T07:17:49.123Z,12.08
2019-04-05T07:20:23.866Z,12.07
2019-04-05T07:22:57.440Z,12.04
2019-04-05T07:25:30.918Z,12.05
2019-04-05T07:28:04.310Z,12.22
2019-04-05T07:30:37.677Z,12.28
2019-04-05T07:33:11.001Z,12.25
2019-04-05T07:35:44.368Z,12.23
2019-04-05T07:38:17.755Z,12.21
2019-04-05T07:40:51.227Z,12.15
2019-04-05T07:43:24.595Z,12.17
2019-04-05T07:45:57.929Z,12.11
2019-04-05T07:48:43.825Z,12.11
2019-04-05T07:51:06.451Z,12.08
2019-04-05T07:53:39.889Z,12.26
2019-04-05T07:56:13.282Z,12.35
2019-04-05T07:58:46.719Z,12.24
2019-04-05T08:01:20.136Z,12.38
2019-04-05T08:03:53.563Z,12.40
2019-04-05T08:06:27.088Z,12.49
2019-04-05T08:09:08.989Z,12.51
2019-04-05T08:11:43.890Z,12.55
2019-04-05T08:14:18.163Z,12.37
2019-04-05T08:16:51.778Z,12.39
2019-04-05T08:19:25.234Z,12.34
2019-04-05T08:21:58.601Z,12.36
2019-04-05T08:24:32.274Z,12.40
2019-04-05T08:27:05.667Z,12.35
2019-04-05T08:29:39.088Z,12.34
2019-04-05T08:32:14.838Z,12.38
2019-04-05T08:34:47.571Z,12.46
2019-04-05T08:37:21.027Z,12.44
2019-04-05T08:39:54.448Z,12.54
2019-04-05T08:42:27.836Z,12.39
2019-04-05T08:45:01.232Z,12.51
2019-04-05T08:47:34.598Z,12.49
2019-04-05T08:50:08.208Z,12.61
2019-04-05T08:52:41.522Z,12.61
2019-04-05T08:55:14.965Z,12.76
2019-04-05T08:57:48.307Z,12.81
2019-04-05T09:00:21.761Z,12.77
2019-04-05T09:02:55.305Z,12.82
2019-04-05T09:05:28.887Z,12.91
2019-04-05T09:08:02.281Z,12.95
2019-04-05T09:10:35.811Z,12.94
2019-04-05T09:13:09.224Z,12.82
2019-04-05T09:15:42.643Z,12.82
2019-04-05T09:18:15.968Z,12.78
2019-04-05T09:20:49.389Z,12.94
2019-04-05T09:23:22.731Z,13.01
2019-04-05T09:25:56.169Z,13.02
2019-04-05T09:28:29.495Z,12.90
2019-04-05T09:31:02.928Z,12.89
2019-04-05T09:33:36.248Z,12.97
2019-04-05T09:36:09.714Z,12.93
2019-04-05T09:38:43.108Z,12.88
2019-04-05T09:41:16.463Z,12.93
2019-04-05T09:43:49.823Z,13.00
2019-04-05T09:46:23.187Z,13.00
2019-04-05T09:48:56.608Z,13.14
2019-04-05T09:51:29.992Z,13.23
2019-04-05T09:54:03.467Z,13.16
2019-04-05T09:56:36.876Z,13.11
2019-04-05T09:59:10.299Z,13.13
2019-04-05T10:01:43.834Z,13.16
2019-04-05T10:04:17.265Z,13.30
2019-04-05T10:06:50.713Z,13.30
2019-04-05T10:09:24.113Z,13.37
2019-04-05T10:11:57.566Z,13.29
2019-04-05T10:14:30.981Z,13.31
2019-04-05T10:17:04.501Z,13.17
2019-04-05T10:19:49.192Z,13.19
2019-04-05T10:22:12.945Z,13.18
2019-04-05T10:24:46.276Z,13.20
2019-04-05T10:27:19.629Z,13.27
2019-04-05T10:29:53.071Z,13.26
2019-04-05T10:32:26.405Z,13.32
2019-04-05T10:34:59.826Z,13.32
2019-04-05T10:37:33.247Z,13.28
2019-04-05T10:40:07.202Z,13.30
2019-04-05T10:42:40.568Z,13.43
2019-04-05T10:45:14.398Z,13.54
2019-04-05T10:47:47.877Z,13.50
2019-04-05T10:50:21.382Z,13.53
2019-04-05T10:52:54.697Z,13.59
2019-04-05T10:55:28.102Z,13.58
2019-04-05T10:58:01.508Z,13.63
2019-04-05T11:00:34.858Z,13.61
2019-04-05T11:03:08.193Z,13.65
2019-04-05T11:05:41.547Z,13.71
2019-04-05T11:08:14.914Z,13.78
2019-04-05T11:10:48.229Z,13.79
2019-04-05T11:13:21.649Z,13.78
2019-04-05T11:15:55.069Z,13.85
2019-04-05T11:18:28.389Z,13.94
2019-04-05T11:21:01.758Z,13.96
2019-04-05T11:23:35.084Z,13.93
2019-04-05T11:26:08.458Z,13.90
2019-04-05T11:28:41.799Z,13.89
2019-04-05T11:31:15.303Z,13.94
2019-04-05T11:33:48.702Z,13.94
2019-04-05T11:36:22.161Z,13.87
2019-04-05T11:38:55.547Z,13.84
2019-04-05T11:41:29.105Z,13.83
2019-04-05T11:44:03.132Z,13.79
2019-04-05T11:46:37.247Z,13.66
2019-04-05T11:49:10.709Z,13.28
2019-04-05T11:51:44.200Z,13.40
2019-04-05T11:54:18.521Z,13.56
2019-04-05T11:56:52.029Z,13.72
2019-04-05T11:59:25.378Z,13.76
2019-04-05T12:02:03.119Z,13.67
2019-04-05T12:04:36.811Z,13.65
2019-04-05T12:07:10.248Z,13.66
2019-04-05T12:09:43.568Z,13.76
2019-04-05T12:12:17.042Z,13.77
2019-04-05T12:14:50.360Z,13.62
2019-04-05T12:17:23.844Z,13.42
2019-04-05T12:19:57.236Z,13.57
2019-04-05T12:22:34.514Z,13.68
2019-04-05T12:25:07.785Z,13.58
2019-04-05T12:27:41.125Z,13.74
2019-04-05T12:30:19.521Z,13.83
2019-04-05T12:32:52.870Z,13.93
2019-04-05T12:35:26.203Z,13.98
2019-04-05T12:37:59.639Z,14.04
2019-04-05T12:40:33.067Z,14.05
2019-04-05T12:43:06.495Z,14.10
2019-04-05T12:45:39.892Z,14.14
2019-04-05T12:48:13.690Z,14.18
2019-04-05T12:51:00.326Z,14.24
2019-04-05T12:53:24.654Z,14.25
2019-04-05T12:55:58.873Z,14.18
2019-04-05T12:58:32.833Z,14.04
2019-04-05T13:01:08.382Z,14.11
2019-04-05T13:03:41.634Z,14.17
2019-04-05T13:06:15.027Z,14.19
2019-04-05T13:08:48.396Z,14.20
2019-04-05T13:11:25.930Z,14.22
2019-04-05T13:13:57.034Z,14.24
2019-04-05T13:16:30.405Z,14.17
2019-04-05T13:19:03.806Z,14.16
2019-04-05T13:21:37.130Z,14.16
2019-04-05T13:24:12.027Z,14.16
2019-04-05T13:26:45.459Z,14.05
2019-04-05T13:29:19.655Z,14.01
2019-04-05T13:31:53.634Z,14.02
2019-04-05T13:34:27.007Z,14.05
2019-04-05T13:37:01.400Z,14.09
2019-04-05T13:39:35.388Z,14.10
2019-04-05T13:42:08.808Z,14.14
2019-04-05T13:44:42.237Z,14.14
2019-04-05T13:47:15.612Z,14.12
2019-04-05T13:49:48.977Z,14.03
2019-04-05T13:52:22.374Z,14.05
2019-04-05T13:54:55.736Z,13.96
2019-04-05T13:57:29.179Z,14.01
2019-04-05T14:00:02.612Z,14.08
2019-04-05T14:02:36.014Z,14.11
2019-04-05T14:05:09.503Z,14.21
2019-04-05T14:07:42.857Z,14.24
2019-04-05T14:10:16.292Z,14.35
2019-04-05T14:12:49.684Z,14.44
2019-04-05T14:15:23.120Z,14.43
2019-04-05T14:17:56.470Z,14.41
2019-04-05T14:20:29.921Z,14.47
2019-04-05T14:23:03.426Z,14.46
2019-04-05T14:25:36.919Z,14.46
2019-04-05T14:28:10.257Z,14.44
2019-04-05T14:30:43.621Z,14.38
2019-04-05T14:33:17.016Z,14.37
2019-04-05T14:35:50.391Z,14.38
2019-04-05T14:38:23.822Z,14.39
2019-04-05T14:40:57.150Z,14.40
2019-04-05T14:43:30.476Z,14.23
2019-04-05T14:46:03.995Z,14.20
2019-04-05T14:48:37.323Z,14.21
2019-04-05T14:51:10.822Z,14.16
2019-04-05T14:53:44.366Z,14.20
2019-04-05T14:56:18.097Z,14.17
2019-04-05T14:58:51.568Z,14.21
2019-04-05T15:01:24.955Z,14.17
2019-04-05T15:03:58.331Z,14.19
2019-04-05T15:06:31.685Z,14.20
2019-04-05T15:09:06.506Z,14.15
2019-04-05T15:11:39.900Z,14.11
2019-04-05T15:14:13.248Z,14.11
2019-04-05T15:16:46.574Z,14.14
2019-04-05T15:19:19.946Z,14.14
2019-04-05T15:22:04.863Z,14.11
2019-04-05T15:24:28.396Z,14.12
2019-04-05T15:27:01.748Z,14.08
2019-04-05T15:29:35.135Z,14.10
2019-04-05T15:32:08.536Z,14.12
2019-04-05T15:34:42.048Z,14.05
2019-04-05T15:37:16.123Z,14.05
2019-04-05T15:39:49.828Z,14.08
2019-04-05T15:42:23.213Z,13.97
2019-04-05T15:44:56.587Z,13.92
2019-04-05T15:47:31.954Z,13.89
2019-04-05T15:50:07.324Z,13.94
2019-04-05T15:52:40.645Z,14.01
2019-04-05T15:55:14.081Z,14.05
2019-04-05T15:57:47.488Z,13.95
2019-04-05T16:00:39.028Z,13.98
2019-04-05T16:03:13.376Z,13.94
2019-04-05T16:05:46.878Z,13.95
2019-04-05T16:08:20.278Z,13.95
2019-04-05T16:10:53.644Z,13.97
2019-04-05T16:13:27.050Z,13.94
2019-04-05T16:16:00.467Z,13.92
2019-04-05T16:18:33.800Z,13.93
2019-04-05T16:21:07.149Z,13.94
2019-04-05T16:23:40.493Z,13.91
2019-04-05T16:26:13.839Z,13.90
2019-04-05T16:28:47.184Z,13.87
2019-04-05T16:31:20.611Z,13.81
2019-04-05T16:33:54.045Z,13.81
2019-04-05T16:36:27.551Z,13.82
2019-04-05T16:39:02.601Z,13.80
2019-04-05T16:41:35.953Z,13.80
2019-04-05T16:44:09.378Z,13.71
2019-04-05T16:46:42.749Z,13.72
2019-04-05T16:49:16.097Z,13.70
2019-04-05T16:51:49.484Z,13.69
2019-04-05T16:54:22.804Z,13.74
2019-04-05T16:56:56.248Z,13.77
2019-04-05T16:59:29.569Z,13.83
2019-04-05T17:02:02.937Z,13.67
2019-04-05T17:04:36.311Z,13.73
2019-04-05T17:07:09.662Z,13.73
2019-04-05T17:09:42.980Z,13.75
2019-04-05T17:12:16.349Z,13.79
2019-04-05T17:14:49.735Z,13.70
2019-04-05T17:17:23.190Z,13.72
2019-04-05T17:19:56.524Z,13.78
2019-04-05T17:22:29.971Z,13.81
2019-04-05T17:25:04.543Z,13.81
2019-04-05T17:27:37.987Z,13.79
2019-04-05T17:30:11.384Z,13.78
2019-04-05T17:32:44.775Z,13.80
2019-04-05T17:35:19.580Z,13.81
2019-04-05T17:37:52.938Z,13.81
2019-04-05T17:40:26.282Z,13.80
2019-04-05T17:42:59.718Z,13.80
2019-04-05T17:45:33.038Z,13.79
2019-04-05T17:48:06.487Z,13.79
2019-04-05T17:50:39.814Z,13.79
2019-04-05T17:53:13.607Z,13.73
2019-04-05T17:55:47.169Z,13.73
2019-04-05T17:58:20.605Z,13.74
2019-04-05T18:00:54.137Z,13.76
2019-04-05T18:03:27.602Z,13.76
2019-04-05T18:06:00.961Z,13.76
2019-04-05T18:08:34.284Z,13.77
2019-04-05T18:11:07.632Z,13.74
2019-04-05T18:13:40.966Z,13.68
2019-04-05T18:16:14.415Z,13.70
2019-04-05T18:18:47.755Z,13.71
2019-04-05T18:21:21.240Z,13.73
2019-04-05T18:23:54.561Z,13.72
2019-04-05T18:26:27.926Z,13.70
2019-04-05T18:29:01.345Z,13.69
2019-04-05T18:31:34.936Z,13.69
2019-04-05T18:34:08.384Z,13.70
2019-04-05T18:36:41.781Z,13.68
2019-04-05T18:39:15.360Z,13.69
2019-04-05T18:41:48.711Z,13.69
2019-04-05T18:44:22.039Z,13.68
2019-04-05T18:46:55.448Z,13.67
2019-04-05T18:49:28.841Z,13.67
2019-04-05T18:52:02.201Z,13.65
2019-04-05T18:54:35.523Z,13.66
2019-04-05T18:57:08.892Z,13.65
2019-04-05T18:59:42.203Z,13.63
2019-04-05T19:02:15.551Z,13.64
2019-04-05T19:04:49.017Z,13.65
2019-04-05T19:07:22.521Z,13.64
2019-04-05T19:09:55.891Z,13.50
2019-04-05T19:12:29.311Z,13.47
2019-04-05T19:15:02.856Z,13.48
2019-04-05T19:17:36.187Z,13.49
2019-04-05T19:20:09.963Z,13.50
2019-04-05T19:22:43.413Z,13.53
2019-04-05T19:25:16.887Z,13.56
2019-04-05T19:27:50.259Z,13.54
2019-04-05T19:51:02.688Z,13.42
2019-04-05T19:53:36.134Z,13.43
2019-04-05T19:56:09.536Z,13.48
2019-04-05T19:58:42.973Z,13.48
2019-04-05T20:01:16.778Z,13.43
2019-04-05T20:03:50.179Z,13.41
2019-04-05T20:06:23.573Z,13.44
2019-04-05T20:08:56.941Z,13.45
2019-04-05T20:11:30.290Z,13.45
2019-04-05T20:14:03.716Z,13.46
2019-04-05T20:16:37.124Z,13.45
2019-04-05T20:19:10.490Z,13.38
2019-04-05T20:21:43.853Z,13.39
2019-04-05T20:24:17.219Z,13.43
2019-04-05T20:26:50.773Z,13.43
2019-04-05T20:29:24.239Z,13.32
2019-04-05T20:31:57.659Z,13.39
2019-04-05T20:34:31.044Z,13.28
2019-04-05T20:37:04.439Z,13.30
2019-04-05T20:39:37.920Z,13.35
2019-04-05T20:42:11.270Z,13.36
2019-04-05T20:44:44.740Z,13.37
2019-04-05T20:47:18.166Z,13.18
2019-04-05T20:49:51.585Z,13.17
2019-04-05T20:52:24.978Z,13.26
2019-04-05T20:54:58.340Z,13.32
2019-04-05T20:57:31.691Z,13.35
2019-04-05T21:00:07.478Z,13.33
2019-04-05T21:02:40.995Z,13.35
2019-04-05T21:05:24.585Z,13.38
2019-04-05T21:07:49.477Z,13.36
2019-04-05T21:10:22.876Z,13.33
2019-04-05T21:12:56.267Z,13.33
2019-04-05T21:15:29.643Z,13.29
2019-04-05T21:18:02.981Z,12.92
2019-04-05T21:20:36.406Z,12.97
2019-04-05T21:23:09.867Z,13.06
2019-04-05T21:25:43.341Z,13.14
2019-04-05T21:28:16.677Z,13.09
2019-04-05T21:30:50.122Z,13.13
2019-04-05T21:33:23.451Z,13.18
2019-04-05T21:35:56.806Z,13.19
2019-04-05T21:38:30.319Z,13.17
2019-04-05T21:41:03.714Z,13.19
2019-04-05T21:43:37.130Z,13.18
2019-04-05T21:46:10.847Z,13.16
2019-04-05T21:48:44.304Z,13.03
2019-04-05T21:51:17.755Z,13.00
2019-04-05T21:53:51.212Z,13.02
2019-04-05T21:56:24.714Z,13.03
2019-04-05T21:58:58.102Z,13.07
2019-04-05T22:01:31.536Z,13.08
2019-04-05T22:04:05.095Z,13.08
2019-04-05T22:06:38.533Z,12.88
2019-04-05T22:09:12.236Z,12.77
2019-04-05T22:11:45.608Z,12.82
2019-04-05T22:14:19.075Z,12.86
2019-04-05T22:16:52.527Z,12.85
2019-04-05T22:19:25.983Z,12.67
2019-04-05T22:21:59.317Z,12.57
2019-04-05T22:24:32.765Z,12.59
2019-04-05T22:27:06.134Z,12.55
2019-04-05T22:29:39.680Z,12.43
2019-04-05T22:32:13.051Z,12.34
2019-04-05T22:34:46.587Z,12.35
2019-04-05T22:37:20.095Z,12.28
2019-04-05T22:39:54.221Z,12.26
2019-04-05T22:42:27.557Z,12.17
2019-04-05T22:45:00.909Z,12.07
2019-04-05T22:47:34.511Z,12.07
2019-04-05T22:50:08.200Z,11.98
2019-04-05T22:52:41.587Z,11.88
2019-04-05T22:55:14.946Z,11.74
2019-04-05T22:57:48.268Z,11.70
2019-04-05T23:00:21.691Z,11.64
2019-04-05T23:02:56.042Z,11.62
2019-04-05T23:05:29.592Z,11.59
2019-04-05T23:08:03.102Z,11.51
2019-04-05T23:10:36.553Z,11.46
2019-04-05T23:13:10.349Z,11.41
2019-04-05T23:15:43.922Z,11.38
2019-04-05T23:18:18.070Z,11.28
2019-04-05T23:20:51.812Z,11.23
2019-04-05T23:23:25.543Z,11.17
2019-04-05T23:25:59.425Z,11.13
2019-04-05T23:28:33.117Z,11.12
2019-04-05T23:31:06.840Z,11.05
2019-04-05T23:33:40.461Z,11.05
2019-04-05T23:36:13.889Z,11.01
2019-04-05T23:38:47.495Z,10.96
2019-04-05T23:41:21.005Z,10.88
2019-04-05T23:43:54.919Z,10.85
2019-04-05T23:46:28.577Z,10.79
2019-04-05T23:49:02.128Z,10.76
2019-04-05T23:51:35.778Z,10.71
2019-04-05T23:54:11.154Z,10.67
2019-04-05T23:56:44.839Z,10.63
2019-04-05T23:59:18.357Z,10.59
